createdAt,value
2023-03-12T00:02:06.845Z,15.27
2023-03-12T00:05:00.866Z,15.95
2023-03-12T00:07:47.852Z,16.80
2023-03-12T00:10:27.849Z,16.00
2023-03-12T00:13:21.845Z,16.42
2023-03-12T00:16:17.873Z,15.50
2023-03-12T00:18:53.955Z,17.88
2023-03-12T00:21:40.853Z,16.90
2023-03-12T00:24:14.932Z,16.13
2023-03-12T00:27:01.861Z,15.77
2023-03-12T00:29:34.937Z,15.80
2023-03-12T00:32:21.899Z,15.85
2023-03-12T00:34:59.030Z,16.67
2023-03-12T00:37:45.852Z,13.95
2023-03-12T00:40:19.949Z,15.05
2023-03-12T00:43:06.836Z,15.63
2023-03-12T00:45:39.966Z,16.42
2023-03-12T00:48:33.844Z,15.98
2023-03-12T00:51:27.880Z,16.08
2023-03-12T00:54:15.096Z,15.57
2023-03-12T00:56:48.010Z,15.43
2023-03-12T00:59:34.853Z,15.70
2023-03-12T01:02:07.937Z,13.82
2023-03-12T01:04:54.896Z,15.60
2023-03-12T01:07:34.941Z,14.82
2023-03-12T01:10:16.847Z,14.90
2023-03-12T01:13:03.869Z,16.33
2023-03-12T01:15:37.236Z,15.77
2023-03-12T01:18:23.898Z,15.18
2023-03-12T01:20:57.366Z,14.73
2023-03-12T01:23:43.879Z,15.10
2023-03-12T01:26:17.717Z,14.88
2023-03-12T01:29:04.853Z,15.68
2023-03-12T01:31:38.341Z,14.82
2023-03-12T01:34:25.892Z,15.48
2023-03-12T01:36:59.439Z,16.13
2023-03-12T01:39:45.858Z,15.63
2023-03-12T01:42:19.301Z,15.88
2023-03-12T01:45:15.884Z,15.38
2023-03-12T01:47:55.877Z,14.85
2023-03-12T01:50:42.885Z,14.43
2023-03-12T01:53:17.035Z,14.27
2023-03-12T01:56:04.929Z,15.90
2023-03-12T01:58:41.044Z,14.48
2023-03-12T02:01:30.926Z,16.50
2023-03-12T02:04:10.927Z,17.25
2023-03-12T02:07:11.865Z,15.90
2023-03-12T02:09:48.730Z,15.02
2023-03-12T02:12:35.881Z,14.98
2023-03-12T02:15:16.861Z,15.18
2023-03-12T02:17:56.999Z,13.52
2023-03-12T02:20:54.873Z,15.50
2023-03-12T02:23:53.983Z,14.30
2023-03-12T02:26:35.875Z,14.27
2023-03-12T02:29:23.889Z,16.20
2023-03-12T02:32:00.888Z,17.23
2023-03-12T02:34:47.881Z,15.85
2023-03-12T02:37:21.308Z,15.20
2023-03-12T02:40:31.886Z,14.75
2023-03-12T02:43:07.674Z,14.63
2023-03-12T02:45:53.897Z,14.98
2023-03-12T02:48:27.307Z,14.93
2023-03-12T02:51:13.930Z,16.42
2023-03-12T02:53:47.313Z,16.23
2023-03-12T02:56:38.896Z,17.13
2023-03-12T02:59:20.897Z,14.00
2023-03-12T03:02:03.462Z,15.30
2023-03-12T03:04:42.888Z,14.35
2023-03-12T03:07:22.976Z,15.05
2023-03-12T03:10:02.913Z,15.80
2023-03-12T03:12:44.384Z,14.38
2023-03-12T03:15:23.889Z,14.88
2023-03-12T03:18:10.905Z,16.63
2023-03-12T03:20:51.911Z,16.70
2023-03-12T03:23:38.912Z,15.63
2023-03-12T03:26:18.887Z,14.32
2023-03-12T03:29:05.909Z,14.05
2023-03-12T03:31:45.910Z,15.32
2023-03-12T03:34:26.014Z,15.30
2023-03-12T03:37:05.861Z,15.82
2023-03-12T03:39:45.984Z,14.13
2023-03-12T03:42:25.906Z,15.40
2023-03-12T03:45:12.903Z,15.50
2023-03-12T03:47:52.942Z,15.57
2023-03-12T03:50:32.985Z,14.80
2023-03-12T03:53:15.898Z,14.73
2023-03-12T03:56:02.919Z,15.35
2023-03-12T03:58:36.332Z,14.20
2023-03-12T04:01:22.925Z,15.15
2023-03-12T04:03:56.240Z,14.30
2023-03-12T04:06:42.918Z,15.45
2023-03-12T04:09:18.134Z,14.98
2023-03-12T04:12:04.908Z,14.73
2023-03-12T04:14:42.459Z,13.95
2023-03-12T04:17:28.897Z,14.68
2023-03-12T04:20:08.924Z,14.18
2023-03-12T04:22:49.004Z,14.07
2023-03-12T04:25:28.913Z,12.60
2023-03-12T04:28:08.927Z,14.57
2023-03-12T04:30:48.989Z,14.23
2023-03-12T04:33:22.425Z,13.93
2023-03-12T04:36:08.994Z,15.02
2023-03-12T04:38:42.317Z,14.07
2023-03-12T04:41:29.955Z,13.43
2023-03-12T04:44:04.674Z,14.45
2023-03-12T04:46:51.028Z,14.18
2023-03-12T04:49:30.991Z,14.45
2023-03-12T04:52:17.963Z,14.65
2023-03-12T04:54:51.311Z,15.90
2023-03-12T04:57:37.954Z,15.38
2023-03-12T05:00:19.943Z,14.57
2023-03-12T05:03:00.082Z,14.90
2023-03-12T05:05:39.927Z,14.40
2023-03-12T05:08:26.941Z,16.75
2023-03-12T05:11:06.935Z,15.20
2023-03-12T05:13:47.071Z,14.50
2023-03-12T05:16:27.020Z,15.23
2023-03-12T05:19:07.061Z,15.02
2023-03-12T05:21:48.931Z,15.80
2023-03-12T05:24:35.966Z,15.27
2023-03-12T05:27:15.934Z,16.48
2023-03-12T05:29:56.037Z,14.50
2023-03-12T05:32:36.029Z,14.65
2023-03-12T05:35:16.044Z,15.13
2023-03-12T05:37:55.999Z,15.82
2023-03-12T05:40:43.988Z,16.60
2023-03-12T05:43:23.941Z,16.83
2023-03-12T05:46:16.043Z,16.13
2023-03-12T05:48:55.949Z,15.55
2023-03-12T05:51:42.958Z,14.60
2023-03-12T05:54:17.597Z,16.10
2023-03-12T05:57:03.989Z,15.40
2023-03-12T05:59:37.308Z,15.25
2023-03-12T06:02:23.965Z,15.20
2023-03-12T06:04:58.480Z,15.65
2023-03-12T06:07:45.005Z,14.95
2023-03-12T06:10:19.361Z,15.15
2023-03-12T06:13:05.973Z,15.57
2023-03-12T06:15:39.355Z,14.57
2023-03-12T06:18:25.974Z,13.57
2023-03-12T06:21:14.231Z,14.30
2023-03-12T06:24:08.002Z,13.65
2023-03-12T06:26:54.972Z,13.80
2023-03-12T06:29:28.118Z,17.02
2023-03-12T06:32:15.129Z,13.98
2023-03-12T06:34:54.963Z,14.85
2023-03-12T06:37:41.965Z,13.65
2023-03-12T06:40:22.956Z,16.83
2023-03-12T06:43:09.981Z,14.50
2023-03-12T06:45:43.064Z,14.25
2023-03-12T06:48:37.969Z,14.75
2023-03-12T06:51:24.983Z,15.00
2023-03-12T06:53:58.069Z,14.27
2023-03-12T06:56:44.954Z,13.13
2023-03-12T06:59:21.844Z,14.57
2023-03-12T07:02:09.014Z,16.77
2023-03-12T07:04:42.089Z,14.00
2023-03-12T07:07:28.968Z,21.63
2023-03-12T07:10:08.991Z,15.60
2023-03-12T07:12:55.978Z,15.35
2023-03-12T07:15:30.106Z,17.90
2023-03-12T07:18:17.997Z,15.43
2023-03-12T07:20:51.144Z,15.10
2023-03-12T07:23:37.977Z,13.55
2023-03-12T07:26:18.972Z,14.45
2023-03-12T07:29:05.993Z,13.23
2023-03-12T07:31:39.205Z,13.52
2023-03-12T07:34:26.061Z,13.32
2023-03-12T07:37:00.068Z,12.70
2023-03-12T07:39:47.011Z,12.88
2023-03-12T07:42:20.107Z,14.30
2023-03-12T07:45:07.030Z,14.18
2023-03-12T07:47:40.185Z,13.60
2023-03-12T07:50:27.030Z,13.02
2023-03-12T07:53:06.984Z,13.60
2023-03-12T07:56:01.100Z,13.88
2023-03-12T07:58:48.030Z,11.35
2023-03-12T08:01:28.115Z,12.73
2023-03-12T08:04:22.024Z,15.02
2023-03-12T08:07:09.458Z,15.05
2023-03-12T08:09:43.269Z,13.93
2023-03-12T08:12:30.048Z,12.98
2023-03-12T08:15:10.010Z,14.73
2023-03-12T08:18:03.982Z,13.23
2023-03-12T08:20:51.001Z,14.55
2023-03-12T08:23:30.990Z,13.80
2023-03-12T08:26:25.006Z,14.50
2023-03-12T08:29:12.018Z,14.15
2023-03-12T08:32:03.403Z,14.68
2023-03-12T08:34:51.022Z,13.45
2023-03-12T08:37:31.002Z,13.82
2023-03-12T08:40:22.001Z,14.23
2023-03-12T08:43:02.016Z,14.57
2023-03-12T08:45:57.026Z,16.52
2023-03-12T08:48:51.007Z,18.55
2023-03-12T08:51:45.014Z,18.55
2023-03-12T08:54:32.033Z,16.15
2023-03-12T08:57:12.019Z,16.33
2023-03-12T08:59:59.053Z,16.80
2023-03-12T09:02:34.085Z,17.55
2023-03-12T09:05:21.039Z,17.30
2023-03-12T09:08:02.053Z,15.90
2023-03-12T09:10:55.044Z,18.55
2023-03-12T09:13:45.318Z,17.65
2023-03-12T09:16:36.048Z,19.60
2023-03-12T09:19:09.186Z,19.67
2023-03-12T09:21:56.020Z,18.15
2023-03-12T09:24:29.128Z,18.55
2023-03-12T09:27:16.043Z,16.08
2023-03-12T09:29:59.301Z,16.65
2023-03-12T09:32:47.141Z,18.73
2023-03-12T09:35:22.173Z,18.38
2023-03-12T09:38:10.016Z,18.60
2023-03-12T09:40:44.140Z,18.52
2023-03-12T09:44:10.002Z,17.38
2023-03-12T09:47:01.106Z,18.55
2023-03-12T09:50:04.020Z,17.58
2023-03-12T09:53:34.042Z,19.13
2023-03-12T09:56:32.043Z,15.10
2023-03-12T09:59:26.036Z,15.65
2023-03-12T10:02:39.024Z,15.55
2023-03-12T10:05:29.060Z,18.98
2023-03-12T10:08:24.425Z,18.42
2023-03-12T10:11:15.044Z,17.20
2023-03-12T10:14:07.142Z,16.25
2023-03-12T10:17:24.021Z,15.60
2023-03-12T10:20:17.054Z,17.02
2023-03-12T10:23:22.032Z,18.00
2023-03-12T10:26:23.044Z,17.08
2023-03-12T10:29:00.259Z,16.98
2023-03-12T10:32:02.088Z,16.13
2023-03-12T10:34:59.051Z,17.17
2023-03-12T10:37:52.065Z,15.45
2023-03-12T10:40:31.228Z,17.17
2023-03-12T10:43:18.068Z,15.77
2023-03-12T10:46:20.063Z,15.27
2023-03-12T10:49:37.052Z,13.20
2023-03-12T10:52:29.066Z,13.00
2023-03-12T10:59:05.079Z,14.02
2023-03-12T11:01:56.094Z,14.45
2023-03-12T11:04:37.158Z,14.13
2023-03-12T11:07:39.061Z,14.88
2023-03-12T11:10:22.110Z,14.88
2023-03-12T11:13:19.057Z,14.27
2023-03-12T11:16:24.180Z,14.52
2023-03-12T11:19:13.061Z,15.23
2023-03-12T11:22:14.062Z,14.77
2023-03-12T11:25:13.070Z,14.93
2023-03-12T11:27:56.237Z,13.85
2023-03-12T11:30:46.111Z,13.15
2023-03-12T11:33:20.171Z,16.13
2023-03-12T11:36:25.081Z,14.95
2023-03-12T11:39:10.219Z,13.70
2023-03-12T11:42:00.079Z,13.77
2023-03-12T11:44:58.366Z,13.00
2023-03-12T11:47:57.065Z,15.05
2023-03-12T11:50:43.095Z,14.20
2023-03-12T11:53:51.075Z,12.95
2023-03-12T11:56:40.267Z,13.85
2023-03-12T11:59:30.279Z,13.13
2023-03-12T12:02:20.487Z,12.43
2023-03-12T12:05:13.084Z,13.15
2023-03-12T12:08:04.199Z,13.68
2023-03-12T12:11:15.080Z,13.52
2023-03-12T12:13:59.162Z,13.65
2023-03-12T12:17:08.153Z,14.07
2023-03-12T12:19:59.173Z,12.65
2023-03-12T12:23:09.095Z,12.95
2023-03-12T12:25:53.201Z,12.65
2023-03-12T12:28:49.097Z,13.25
2023-03-12T12:31:52.197Z,13.68
2023-03-12T12:35:07.112Z,12.70
2023-03-12T12:38:05.235Z,12.07
2023-03-12T12:40:58.101Z,13.50
2023-03-12T12:43:46.097Z,14.13
2023-03-12T12:46:43.102Z,13.57
2023-03-12T12:49:49.105Z,13.52
2023-03-12T12:52:43.075Z,13.15
2023-03-12T12:55:39.102Z,13.07
2023-03-12T12:58:26.201Z,12.32
2023-03-12T13:01:14.128Z,12.10
2023-03-12T13:03:52.234Z,11.60
2023-03-12T13:07:07.124Z,11.68
2023-03-12T13:09:45.213Z,12.68
2023-03-12T13:12:32.155Z,11.90
2023-03-12T13:15:14.120Z,11.48
2023-03-12T13:18:32.125Z,12.35
2023-03-12T13:21:28.120Z,12.18
2023-03-12T13:24:29.217Z,12.52
2023-03-12T13:27:32.131Z,12.60
2023-03-12T13:30:05.274Z,11.40
2023-03-12T13:32:55.141Z,10.38
2023-03-12T13:35:28.260Z,11.25
2023-03-12T13:38:24.113Z,12.50
2023-03-12T13:41:22.139Z,11.02
2023-03-12T13:44:34.137Z,11.90
2023-03-12T13:47:26.224Z,11.30
2023-03-12T13:50:20.118Z,9.82
2023-03-12T13:53:04.172Z,9.85
2023-03-12T13:55:56.137Z,11.50
2023-03-12T13:58:29.256Z,10.25
2023-03-12T14:01:25.209Z,12.07
2023-03-12T14:04:07.232Z,12.35
2023-03-12T14:07:33.139Z,11.68
2023-03-12T14:10:16.146Z,10.93
2023-03-12T14:13:28.135Z,10.57
2023-03-12T14:16:33.207Z,11.73
2023-03-12T14:19:14.155Z,11.98
2023-03-12T14:22:13.125Z,11.35
2023-03-12T14:25:11.160Z,12.00
2023-03-12T14:27:58.171Z,11.23
2023-03-12T14:30:48.215Z,11.02
2023-03-12T14:33:47.145Z,11.63
2023-03-12T14:36:28.265Z,12.13
2023-03-12T14:39:27.152Z,10.63
2023-03-12T14:42:15.153Z,12.98
2023-03-12T14:45:08.170Z,10.50
2023-03-12T14:47:59.169Z,10.55
2023-03-12T14:50:55.257Z,11.95
2023-03-12T14:53:46.154Z,10.70
2023-03-12T14:56:47.152Z,11.95
2023-03-12T14:59:47.170Z,10.57
2023-03-12T15:02:37.160Z,11.60
2023-03-12T15:05:11.347Z,9.50
2023-03-12T15:08:09.151Z,10.07
2023-03-12T15:10:44.251Z,9.88
2023-03-12T15:13:34.157Z,10.75
2023-03-12T15:16:07.340Z,9.93
2023-03-12T15:18:56.164Z,10.23
2023-03-12T15:21:37.154Z,11.02
2023-03-12T15:24:31.164Z,10.73
2023-03-12T15:27:35.176Z,10.75
2023-03-12T15:30:15.172Z,11.50
2023-03-12T15:33:24.170Z,11.05
2023-03-12T15:36:21.170Z,16.13
2023-03-12T15:39:37.264Z,13.90
2023-03-12T15:42:24.393Z,14.25
2023-03-12T15:45:11.164Z,14.15
2023-03-12T15:47:47.268Z,12.23
2023-03-12T15:50:43.225Z,12.93
2023-03-12T15:53:19.274Z,12.23
2023-03-12T15:56:27.188Z,11.07
2023-03-12T15:59:38.171Z,10.50
2023-03-12T16:02:49.196Z,19.48
2023-03-12T16:05:39.194Z,27.90
2023-03-12T16:08:21.281Z,25.20
2023-03-12T16:11:08.190Z,18.92
2023-03-12T16:13:42.058Z,25.98
2023-03-12T16:16:29.267Z,24.90
2023-03-12T16:19:02.384Z,24.50
2023-03-12T16:21:50.180Z,22.23
2023-03-12T16:24:30.210Z,22.17
2023-03-12T16:27:32.926Z,19.08
2023-03-12T16:30:42.188Z,16.55
2023-03-12T16:33:20.282Z,14.63
2023-03-12T16:36:07.216Z,15.32
2023-03-12T16:38:47.190Z,19.60
2023-03-12T16:41:42.195Z,17.73
2023-03-12T16:44:36.187Z,21.55
2023-03-12T16:47:23.186Z,22.55
2023-03-12T16:50:03.203Z,21.60
2023-03-12T16:52:53.183Z,21.05
2023-03-12T16:55:29.315Z,16.92
2023-03-12T16:58:20.187Z,17.10
2023-03-12T17:01:01.232Z,13.02
2023-03-12T17:03:57.653Z,12.90
2023-03-12T17:06:46.188Z,13.88
2023-03-12T17:09:19.302Z,14.85
2023-03-12T17:12:06.198Z,15.07
2023-03-12T17:14:47.207Z,17.73
2023-03-12T17:17:34.289Z,15.85
2023-03-12T17:20:10.178Z,13.20
2023-03-12T17:22:57.192Z,16.45
2023-03-12T17:25:34.305Z,18.50
2023-03-12T17:28:22.228Z,15.63
2023-03-12T17:30:55.608Z,16.15
2023-03-12T17:33:42.212Z,15.32
2023-03-12T17:36:16.317Z,15.85
2023-03-12T17:39:03.195Z,15.98
2023-03-12T17:41:39.255Z,22.67
2023-03-12T17:44:26.203Z,23.15
2023-03-12T17:47:06.272Z,23.73
2023-03-12T17:49:53.205Z,22.00
2023-03-12T17:52:33.199Z,20.80
2023-03-12T17:55:27.235Z,17.70
2023-03-12T17:58:14.200Z,19.77
2023-03-12T18:00:47.339Z,18.33
2023-03-12T18:03:34.323Z,18.20
2023-03-12T18:06:15.232Z,19.20
2023-03-12T18:09:09.270Z,17.40
2023-03-12T18:11:56.301Z,15.57
2023-03-12T18:14:29.335Z,18.58
2023-03-12T18:17:16.243Z,20.15
2023-03-12T18:19:49.470Z,19.33
2023-03-12T18:22:36.247Z,17.05
2023-03-12T18:25:09.408Z,16.20
2023-03-12T18:27:56.748Z,18.02
2023-03-12T18:30:37.232Z,15.82
2023-03-12T18:33:24.239Z,17.33
2023-03-12T18:36:04.281Z,16.52
2023-03-12T18:38:58.244Z,16.40
2023-03-12T18:41:45.223Z,17.77
2023-03-12T18:44:18.322Z,14.75
2023-03-12T18:47:05.368Z,16.42
2023-03-12T18:49:38.362Z,15.48
2023-03-12T18:52:25.280Z,16.50
2023-03-12T18:54:58.412Z,17.65
2023-03-12T18:57:45.233Z,20.45
2023-03-12T19:00:21.814Z,17.80
2023-03-12T19:03:08.341Z,18.25
2023-03-12T19:05:48.257Z,19.52
2023-03-12T19:08:36.257Z,17.50
2023-03-12T19:11:21.255Z,18.58
2023-03-12T19:14:15.249Z,19.13
2023-03-12T19:17:02.394Z,19.88
2023-03-12T19:19:42.263Z,19.25
2023-03-12T19:22:32.240Z,19.58
2023-03-12T19:25:12.280Z,20.35
2023-03-12T19:27:59.312Z,21.75
2023-03-12T19:30:40.253Z,22.88
2023-03-12T19:33:35.315Z,22.15
2023-03-12T19:36:29.283Z,22.88
2023-03-12T19:39:21.547Z,23.27
2023-03-12T19:42:05.248Z,23.63
2023-03-12T19:44:52.280Z,25.23
2023-03-12T19:47:26.824Z,20.33
2023-03-12T19:50:15.244Z,19.15
2023-03-12T19:52:48.453Z,20.30
2023-03-12T19:55:35.365Z,18.90
2023-03-12T19:58:16.317Z,20.13
2023-03-12T20:01:14.261Z,22.73
2023-03-12T20:04:01.284Z,22.23
2023-03-12T20:06:34.374Z,26.25
2023-03-12T20:09:21.289Z,26.77
2023-03-12T20:12:01.259Z,26.52
2023-03-12T20:14:48.289Z,29.02
2023-03-12T20:17:22.391Z,27.00
2023-03-12T20:20:09.260Z,30.48
2023-03-12T20:22:50.263Z,33.05
2023-03-12T20:25:44.250Z,32.38
2023-03-12T20:28:31.291Z,23.05
2023-03-12T20:31:04.373Z,23.52
2023-03-12T20:33:51.312Z,24.98
2023-03-12T20:36:24.420Z,24.30
2023-03-12T20:39:11.283Z,23.35
2023-03-12T20:41:51.290Z,23.65
2023-03-12T20:44:38.303Z,20.73
2023-03-12T20:47:11.402Z,20.85
2023-03-12T20:50:05.333Z,19.58
2023-03-12T20:52:59.302Z,20.50
2023-03-12T20:55:53.327Z,19.17
2023-03-12T20:58:47.282Z,19.60
2023-03-12T21:01:41.345Z,18.15
2023-03-12T21:04:28.302Z,19.52
2023-03-12T21:07:01.399Z,21.00
2023-03-12T21:09:48.358Z,20.27
2023-03-12T21:12:21.379Z,21.05
2023-03-12T21:15:12.322Z,22.08
2023-03-12T21:17:46.465Z,21.98
2023-03-12T21:20:33.291Z,22.75
2023-03-12T21:23:13.369Z,20.70
2023-03-12T21:26:15.347Z,22.38
2023-03-12T21:29:02.321Z,24.45
2023-03-12T21:31:35.892Z,25.63
2023-03-12T21:34:22.269Z,26.75
2023-03-12T21:36:55.483Z,26.38
2023-03-12T21:39:42.291Z,30.73
2023-03-12T21:42:15.391Z,29.55
2023-03-12T21:45:02.316Z,30.60
2023-03-12T21:47:35.460Z,29.67
2023-03-12T21:50:29.358Z,27.65
2023-03-12T21:53:24.230Z,28.90
2023-03-12T21:56:20.347Z,29.30
2023-03-12T21:59:14.328Z,27.95
2023-03-12T22:02:08.305Z,25.77
2023-03-12T22:04:58.308Z,25.48
2023-03-12T22:07:38.322Z,24.27
2023-03-12T22:10:25.305Z,25.63
2023-03-12T22:13:05.299Z,26.05
2023-03-12T22:16:08.527Z,30.40
2023-03-12T22:18:55.343Z,32.25
2023-03-12T22:21:29.459Z,29.90
2023-03-12T22:24:17.364Z,30.58
2023-03-12T22:26:59.436Z,33.88
2023-03-12T22:29:53.318Z,30.90
2023-03-12T22:32:40.384Z,27.67
2023-03-12T22:35:14.451Z,32.65
2023-03-12T22:38:01.301Z,31.73
2023-03-12T22:40:34.615Z,31.33
2023-03-12T22:43:22.455Z,32.00
2023-03-12T22:46:00.392Z,34.75
2023-03-12T22:48:47.326Z,35.25
2023-03-12T22:51:28.322Z,33.47
2023-03-12T22:54:15.345Z,39.55
2023-03-12T22:56:48.409Z,41.67
2023-03-12T22:59:35.320Z,35.00
2023-03-12T23:02:08.671Z,29.90
2023-03-12T23:04:55.417Z,32.13
2023-03-12T23:07:29.436Z,33.83
2023-03-12T23:10:34.325Z,36.95
2023-03-12T23:13:09.387Z,33.47
2023-03-12T23:15:56.326Z,37.55
2023-03-12T23:18:29.412Z,30.58
2023-03-12T23:21:19.328Z,36.50
2023-03-12T23:24:00.312Z,28.30
2023-03-12T23:26:48.398Z,32.22
2023-03-12T23:29:21.512Z,29.25
2023-03-12T23:32:08.338Z,27.17
2023-03-12T23:34:41.433Z,25.20
2023-03-12T23:37:28.326Z,33.72
2023-03-12T23:40:08.334Z,24.17
2023-03-12T23:42:55.359Z,22.83
2023-03-12T23:45:35.426Z,22.45
2023-03-12T23:48:29.334Z,23.45
2023-03-12T23:51:27.348Z,20.85
2023-03-12T23:54:14.394Z,21.55
2023-03-12T23:56:48.527Z,21.20
2023-03-12T23:59:35.360Z,22.77
